ZOS weather

CaƱal Bajo Carlos - Hott Siebert Airport
Osorno, Los Lagos Region, Chile

Public forecast

Using degrees Celsius for public forecast. Weather courtesy of forecast.io.

METAR (pilot weather report)

Retrieved 2019/07/18 14:00 UTC (18 minutes ago):

SCJO 181400Z 03009KT 9999 BKN015 BKN020 06/06 Q1025

TAF (pilot weather forecast)

Retrieved 2019/07/18 12:33 UTC (2 hours ago):

TAF TAF SCJO 181045Z 1812/1824 01010KT 9999 SCT020 SCT030 TN06/1812Z TX11/1816Z TEMPO 1812/1816 9999 -SHRA BKN020 BKN030 BECMG 1817/1819 9000 -SHRA BKN018 BKN030 BECMG 1822/1824 9999 NSW BKN020 SCT030